KBRL/BRL METAR and TAF weather

Enter ICAO airport designator
Station Type Date Time Source
KBRL METAR 2018/12/12 23:53 UTC NOAA

KBRL 122353Z AUTO 04003KT 10SM CLR M02/M04 A2989 RMK AO2 SLP129 T10171039 10028 21017 51012


Station Type Date Time Source
KBRL Decoded METAR 2018/12/12 23:53 UTC NOAA

BURLINGTON REGIONAL AIRPORT, IA, United States (KBRL) 40-46N 91-08W 211M
Dec 12, 2018 - 06:53 PM EST / 2018.12.12 2353 UTC
Wind: from the NE (040 degrees) at 3 MPH (3 KT):0
Visibility: 10 mile(s):0
Sky conditions: clear
Temperature: 28.9 F (-1.7 C)
Dew Point: 25.0 F (-3.9 C)
Relative Humidity: 84%
Pressure (altimeter): 29.89 in. Hg (1012 hPa)
Pressure tendency: 0.04 inches (1.2 hPa) higher than three hours ago
ob: KBRL 122353Z AUTO 04003KT 10SM CLR M02/M04 A2989 RMK AO2 SLP129 T10171039 10028 21017 51012
cycle: 0

Station Type Date Time Source
KBRL TAF 2018/12/12 22:36 UTC NOAA

TAF
AMD KBRL 122134Z 1222/1318 26010KT P6SM BKN015
FM122300 25004KT P6SM BKN250
FM131300 09007KT 4SM -DZ BR OVC008


Example: see airport list